Time;durP1;ratioP1;P1;durP2;ratioP2;P2;SDS_P1;SDS_P2;PMS_P1;PMS_P2;Temp;Humidity;BMP_temperature;BMP_pressure;BME280_temperature;BME280_humidity;BME280_pressure;Samples;Min_cycle;Max_cycle;Signal;HPM_P1;HPM_P2
2023/11/28 00:00:13;;;;;;;0.10;0.10;;;20.00;35.70;;;;;;5035428;28;20026;-55
2023/11/28 00:02:39;;;;;;;0.60;0.10;;;20.00;35.70;;;;;;5034961;28;20033;-56
2023/11/28 00:05:05;;;;;;;0.15;0.13;;;20.00;35.70;;;;;;5036153;28;20033;-54
2023/11/28 00:07:33;;;;;;;0.22;0.22;;;20.00;35.70;;;;;;5016890;28;20338;-54
2023/11/28 00:10:03;;;;;;;0.20;0.20;;;20.00;35.70;;;;;;5018017;28;20042;-56
2023/11/28 00:12:29;;;;;;;0.20;0.20;;;20.00;35.70;;;;;;5035341;28;20033;-58
2023/11/28 00:14:55;;;;;;;0.17;0.13;;;20.00;35.70;;;;;;5018536;28;20399;-56
2023/11/28 00:17:21;;;;;;;0.22;0.15;;;20.00;35.70;;;;;;5016754;28;20075;-57
2023/11/28 00:19:47;;;;;;;0.30;0.30;;;20.00;35.80;;;;;;5035913;28;20029;-56
2023/11/28 00:22:13;;;;;;;0.30;0.30;;;20.00;35.70;;;;;;5001869;28;20452;-56
2023/11/28 00:24:39;;;;;;;0.30;0.20;;;19.90;35.60;;;;;;5017806;28;20084;-56
2023/11/28 00:27:05;;;;;;;0.30;0.30;;;19.90;35.60;;;;;;5017407;28;20044;-59
2023/11/28 00:29:30;;;;;;;0.20;0.20;;;19.90;35.60;;;;;;5035668;28;20033;-55
2023/11/28 00:31:57;;;;;;;0.20;0.20;;;19.90;35.60;;;;;;5017525;28;20032;-58
2023/11/28 00:34:24;;;;;;;0.35;0.20;;;19.90;35.60;;;;;;5035348;28;20033;-56
2023/11/28 00:36:50;;;;;;;0.38;0.30;;;19.90;35.60;;;;;;5035415;28;20127;-60
2023/11/28 00:39:17;;;;;;;0.43;0.30;;;19.90;35.60;;;;;;5029729;28;20056;-60
2023/11/28 00:41:43;;;;;;;0.30;0.20;;;19.90;35.50;;;;;;5054720;28;20433;-55
2023/11/28 00:44:10;;;;;;;0.20;0.20;;;19.90;35.60;;;;;;5019264;28;20048;-57
2023/11/28 00:46:40;;;;;;;0.20;0.20;;;19.90;35.50;;;;;;5036546;28;20025;-58
2023/11/28 00:49:07;;;;;;;0.20;0.20;;;19.90;35.50;;;;;;5054460;28;20029;-52
2023/11/28 00:51:33;;;;;;;0.30;0.30;;;19.90;35.50;;;;;;5053632;28;20039;-57
2023/11/28 00:53:59;;;;;;;0.30;0.30;;;19.90;35.50;;;;;;5037364;28;20033;-55
2023/11/28 00:56:25;;;;;;;0.10;0.10;;;19.80;35.50;;;;;;5037361;28;20035;-57
2023/11/28 00:58:51;;;;;;;0.10;0.10;;;19.90;35.50;;;;;;5054240;28;20054;-56
2023/11/28 01:01:20;;;;;;;0.20;0.20;;;19.80;35.40;;;;;;5054576;28;20402;-58
2023/11/28 01:03:46;;;;;;;0.20;0.20;;;19.80;35.40;;;;;;5054671;28;20459;-57
2023/11/28 01:06:12;;;;;;;0.47;0.30;;;19.80;35.40;;;;;;5054424;28;20044;-59
2023/11/28 01:08:38;;;;;;;0.20;0.20;;;19.80;35.40;;;;;;5053375;28;20029;-55
2023/11/28 01:11:04;;;;;;;0.20;0.20;;;19.80;35.50;;;;;;5020700;28;20036;-56
2023/11/28 01:13:30;;;;;;;0.25;0.25;;;19.80;35.50;;;;;;5055165;28;20043;-57
2023/11/28 01:15:56;;;;;;;0.85;0.30;;;19.80;35.40;;;;;;5020859;28;20033;-59
2023/11/28 01:18:22;;;;;;;0.28;0.20;;;19.80;35.40;;;;;;5053060;28;20025;-53
2023/11/28 01:20:48;;;;;;;0.25;0.25;;;19.80;35.40;;;;;;5054977;28;20036;-56
2023/11/28 01:23:15;;;;;;;0.55;0.38;;;19.80;35.40;;;;;;5037148;28;20107;-57
2023/11/28 01:25:41;;;;;;;0.30;0.20;;;19.80;35.40;;;;;;5037153;28;20037;-59
2023/11/28 01:28:07;;;;;;;0.40;0.40;;;19.80;35.40;;;;;;5054421;28;20029;-60
2023/11/28 01:30:33;;;;;;;0.30;0.30;;;19.80;35.40;;;;;;5037148;28;20033;-61
2023/11/28 01:33:00;;;;;;;0.40;0.20;;;19.80;35.40;;;;;;5037270;28;20085;-55
2023/11/28 01:35:26;;;;;;;0.50;0.32;;;19.80;35.30;;;;;;5054982;28;20029;-58
2023/11/28 01:37:51;;;;;;;0.22;0.20;;;19.80;35.30;;;;;;5054266;28;20025;-57
2023/11/28 01:40:18;;;;;;;0.77;0.30;;;19.70;35.20;;;;;;5036805;28;20096;-59
2023/11/28 01:42:46;;;;;;;0.85;0.25;;;19.70;35.20;;;;;;5030052;28;20391;-56
2023/11/28 01:45:13;;;;;;;0.25;0.25;;;19.80;35.30;;;;;;5035001;28;20030;-56
2023/11/28 01:47:39;;;;;;;0.30;0.30;;;19.70;35.20;;;;;;5026580;28;20033;-58
2023/11/28 01:50:06;;;;;;;0.30;0.30;;;19.70;35.20;;;;;;5036561;28;20036;-55
2023/11/28 01:52:32;;;;;;;0.17;0.17;;;19.70;35.20;;;;;;5036818;28;20029;-60
2023/11/28 01:55:01;;;;;;;0.35;0.20;;;19.70;35.20;;;;;;5032709;28;20033;-56
2023/11/28 01:57:28;;;;;;;0.20;0.17;;;19.70;35.20;;;;;;5048002;28;20036;-58
2023/11/28 01:59:55;;;;;;;0.47;0.30;;;19.70;35.20;;;;;;5034174;28;20044;-55
2023/11/28 02:02:22;;;;;;;0.47;0.20;;;19.70;35.20;;;;;;5058471;28;20041;-58
2023/11/28 02:04:48;;;;;;;0.28;0.22;;;19.70;35.20;;;;;;5007938;28;20029;-53
2023/11/28 02:07:14;;;;;;;0.30;0.30;;;19.70;35.10;;;;;;5019948;28;20020;-58
2023/11/28 02:09:41;;;;;;;0.30;0.30;;;19.70;35.10;;;;;;5004991;28;20037;-57
2023/11/28 02:12:07;;;;;;;0.30;0.30;;;19.70;35.20;;;;;;5020505;28;20037;-58
2023/11/28 02:14:41;;;;;;;0.32;0.30;;;19.60;35.10;;;;;;5020454;28;20452;-53
2023/11/28 02:17:07;;;;;;;0.20;0.20;;;19.70;35.10;;;;;;5020087;28;20120;-60
2023/11/28 02:19:32;;;;;;;0.60;0.28;;;19.70;35.10;;;;;;5027609;28;20108;-55
2023/11/28 02:21:58;;;;;;;1.13;0.30;;;19.60;35.10;;;;;;5058111;28;20056;-57
2023/11/28 02:24:25;;;;;;;0.30;0.30;;;19.60;35.10;;;;;;5058242;28;20029;-50
2023/11/28 02:26:51;;;;;;;0.30;0.30;;;19.60;35.10;;;;;;5037747;28;20059;-57
2023/11/28 02:29:17;;;;;;;0.30;0.30;;;19.70;35.20;;;;;;5050625;28;20068;-55
2023/11/28 02:31:43;;;;;;;0.20;0.20;;;19.60;35.10;;;;;;5037930;28;20341;-56
2023/11/28 02:34:09;;;;;;;0.55;0.30;;;19.60;35.10;;;;;;5037109;28;20494;-57
2023/11/28 02:36:34;;;;;;;0.30;0.30;;;19.60;35.10;;;;;;5038005;28;20380;-55
2023/11/28 02:39:00;;;;;;;0.40;0.20;;;19.60;35.10;;;;;;5017527;28;20052;-55
2023/11/28 02:41:26;;;;;;;0.30;0.20;;;19.60;35.80;;;;;;5037625;28;20361;-58
2023/11/28 02:43:53;;;;;;;0.40;0.30;;;19.60;35.10;;;;;;5019684;28;20445;-59
2023/11/28 02:46:19;;;;;;;0.20;0.20;;;19.60;35.20;;;;;;5047317;28;20055;-58
2023/11/28 02:48:47;;;;;;;0.75;0.40;;;19.60;35.10;;;;;;5020771;28;20116;-55
2023/11/28 02:51:16;;;;;;;0.20;0.20;;;19.50;35.00;;;;;;5057185;28;20382;-53
2023/11/28 02:53:42;;;;;;;0.43;0.20;;;19.60;35.10;;;;;;5057276;28;20060;-59
2023/11/28 02:56:11;;;;;;;0.30;0.30;;;19.60;35.10;;;;;;5056750;28;20048;-61
2023/11/28 02:58:37;;;;;;;0.50;0.30;;;19.50;35.00;;;;;;5051495;28;20029;-55
2023/11/28 03:01:03;;;;;;;0.40;0.40;;;19.50;35.00;;;;;;5020021;28;20021;-56
2023/11/28 03:03:29;;;;;;;0.28;0.28;;;19.50;35.00;;;;;;5039136;28;20033;-55
2023/11/28 03:05:55;;;;;;;0.45;0.40;;;19.50;35.00;;;;;;5039889;28;20409;-52
2023/11/28 03:08:21;;;;;;;0.63;0.43;;;19.50;35.00;;;;;;5022559;28;20457;-54
2023/11/28 03:10:46;;;;;;;0.30;0.30;;;19.50;35.00;;;;;;5036701;28;20029;-56
2023/11/28 03:13:12;;;;;;;0.52;0.32;;;19.50;35.00;;;;;;5037156;28;20044;-53
2023/11/28 03:15:38;;;;;;;0.50;0.40;;;19.50;35.00;;;;;;5022023;28;20330;-55
2023/11/28 03:18:08;;;;;;;0.38;0.30;;;19.50;35.00;;;;;;5042210;28;20083;-58
2023/11/28 03:20:35;;;;;;;0.30;0.30;;;19.50;35.00;;;;;;5037226;28;20365;-52
2023/11/28 03:23:01;;;;;;;1.13;0.50;;;19.50;35.00;;;;;;5050480;28;20360;-56
2023/11/28 03:25:27;;;;;;;1.23;0.60;;;19.50;35.00;;;;;;5056887;28;20025;-57
2023/11/28 03:27:53;;;;;;;0.63;0.40;;;19.50;34.90;;;;;;5038594;28;20071;-56
2023/11/28 03:30:21;;;;;;;0.40;0.35;;;19.50;34.90;;;;;;5027593;28;20108;-58
2023/11/28 03:32:48;;;;;;;0.98;0.50;;;19.50;34.90;;;;;;5035862;28;20026;-59
2023/11/28 03:35:14;;;;;;;0.80;0.35;;;19.50;34.90;;;;;;5035996;28;20388;-57
2023/11/28 03:37:39;;;;;;;0.77;0.50;;;19.50;34.80;;;;;;5018737;28;20048;-59
2023/11/28 03:40:06;;;;;;;0.50;0.30;;;19.50;34.80;;;;;;5035408;28;20045;-53
2023/11/28 03:42:32;;;;;;;0.40;0.40;;;19.50;34.80;;;;;;4998677;28;20038;-55
2023/11/28 03:44:58;;;;;;;0.43;0.35;;;19.40;34.70;;;;;;5029285;28;20094;-57
2023/11/28 03:47:23;;;;;;;0.52;0.32;;;19.50;34.70;;;;;;5018676;28;20044;-56
2023/11/28 03:49:49;;;;;;;0.57;0.40;;;19.40;34.70;;;;;;5017412;28;20029;-54
2023/11/28 03:52:16;;;;;;;0.30;0.30;;;19.40;34.60;;;;;;5001681;28;20026;-57
2023/11/28 03:54:42;;;;;;;0.50;0.30;;;19.40;34.60;;;;;;5018943;28;20037;-57
2023/11/28 03:57:08;;;;;;;0.43;0.30;;;19.40;34.50;;;;;;5018487;28;20065;-56
2023/11/28 03:59:34;;;;;;;0.40;0.30;;;19.40;34.50;;;;;;5034812;28;20045;-53
2023/11/28 04:02:00;;;;;;;0.40;0.40;;;19.40;34.40;;;;;;4998420;28;20068;-57
2023/11/28 04:04:26;;;;;;;0.20;0.20;;;19.40;34.40;;;;;;5016346;28;20034;-56
2023/11/28 04:06:52;;;;;;;0.63;0.30;;;19.40;34.40;;;;;;5031780;28;20433;-59
2023/11/28 04:09:19;;;;;;;0.40;0.40;;;19.40;34.40;;;;;;5017667;28;20091;-59
2023/11/28 04:11:45;;;;;;;0.30;0.30;;;19.40;34.40;;;;;;5018158;28;20457;-56
2023/11/28 04:14:11;;;;;;;0.43;0.30;;;19.40;34.30;;;;;;5035647;28;20040;-56
2023/11/28 04:16:37;;;;;;;0.28;0.20;;;19.40;34.20;;;;;;5017884;28;20029;-58
2023/11/28 04:19:03;;;;;;;0.77;0.30;;;19.40;34.20;;;;;;5018066;28;20091;-59
2023/11/28 04:21:29;;;;;;;0.57;0.20;;;19.40;34.10;;;;;;5017595;28;20025;-54
2023/11/28 04:23:55;;;;;;;0.25;0.20;;;19.40;34.10;;;;;;5001004;28;20041;-58
2023/11/28 04:26:22;;;;;;;0.20;0.20;;;19.40;34.10;;;;;;5018424;28;20021;-54
2023/11/28 04:28:49;;;;;;;0.40;0.20;;;19.40;34.00;;;;;;5001640;28;20025;-56
2023/11/28 04:31:21;;;;;;;0.57;0.30;;;19.40;34.00;;;;;;5017129;28;20032;-59
2023/11/28 04:33:51;;;;;;;0.30;0.30;;;19.40;33.90;;;;;;5016847;28;20032;-53
2023/11/28 04:36:18;;;;;;;0.28;0.28;;;19.30;33.80;;;;;;5018362;28;20052;-57
2023/11/28 04:38:44;;;;;;;0.40;0.30;;;19.30;33.80;;;;;;5017405;28;20085;-57
2023/11/28 04:41:13;;;;;;;0.20;0.20;;;19.30;33.80;;;;;;5016951;28;20353;-59
2023/11/28 04:43:39;;;;;;;0.30;0.30;;;19.30;33.80;;;;;;5017178;28;20138;-57
2023/11/28 04:46:05;;;;;;;0.22;0.20;;;19.30;33.80;;;;;;5017745;28;20025;-54
2023/11/28 04:48:32;;;;;;;0.15;0.15;;;19.30;33.70;;;;;;5016321;28;20095;-55
2023/11/28 04:50:58;;;;;;;0.32;0.32;;;19.30;33.70;;;;;;5034101;28;20021;-55
2023/11/28 04:53:25;;;;;;;0.30;0.30;;;19.30;33.60;;;;;;5017376;28;20029;-56
2023/11/28 04:55:51;;;;;;;0.82;0.20;;;19.30;33.60;;;;;;5017154;28;20025;-58
2023/11/28 04:58:18;;;;;;;0.20;0.20;;;19.30;33.70;;;;;;5017289;28;20128;-55
2023/11/28 05:00:44;;;;;;;0.38;0.13;;;19.30;33.60;;;;;;4997480;28;20112;-59
2023/11/28 05:03:10;;;;;;;0.22;0.20;;;19.30;33.60;;;;;;5009332;28;20039;-54
2023/11/28 05:05:36;;;;;;;0.17;0.10;;;19.30;33.60;;;;;;5017696;28;20041;-59
2023/11/28 05:08:02;;;;;;;0.30;0.30;;;19.30;33.60;;;;;;5017139;28;20430;-55
2023/11/28 05:10:28;;;;;;;0.28;0.28;;;19.30;33.60;;;;;;5016867;28;20457;-55
2023/11/28 05:12:54;;;;;;;0.17;0.17;;;19.30;33.60;;;;;;5016856;28;20029;-58
2023/11/28 05:15:20;;;;;;;0.20;0.20;;;19.30;33.60;;;;;;5001316;28;20037;-57
2023/11/28 05:17:47;;;;;;;0.20;0.20;;;19.30;33.60;;;;;;5016917;28;20033;-58
2023/11/28 05:20:13;;;;;;;0.20;0.20;;;19.30;33.60;;;;;;5034899;28;20040;-60
2023/11/28 05:22:41;;;;;;;0.50;0.20;;;19.30;33.60;;;;;;5017194;28;20424;-58
2023/11/28 05:25:08;;;;;;;0.22;0.20;;;19.30;33.60;;;;;;5017119;28;20448;-57
2023/11/28 05:27:34;;;;;;;0.30;0.10;;;19.20;33.50;;;;;;5001035;28;20029;-58
2023/11/28 05:30:01;;;;;;;0.20;0.20;;;19.20;33.60;;;;;;5017438;28;20040;-56
2023/11/28 05:32:29;;;;;;;0.30;0.15;;;19.20;33.50;;;;;;5016903;28;20030;-55
2023/11/28 05:34:55;;;;;;;0.30;0.10;;;19.20;33.60;;;;;;5021080;28;20175;-55
2023/11/28 05:37:23;;;;;;;0.20;0.20;;;19.20;33.60;;;;;;5004775;28;20025;-58
2023/11/28 05:39:50;;;;;;;0.38;0.30;;;19.20;33.60;;;;;;5037519;28;20045;-60
2023/11/28 05:42:16;;;;;;;0.28;0.20;;;19.20;33.60;;;;;;5040100;28;20359;-60
2023/11/28 05:44:42;;;;;;;0.20;0.20;;;19.20;33.60;;;;;;5058854;28;20513;-57
2023/11/28 05:47:08;;;;;;;0.20;0.20;;;19.20;33.60;;;;;;5040949;28;20049;-59
2023/11/28 05:49:35;;;;;;;0.25;0.20;;;19.20;33.60;;;;;;5040916;28;20036;-56
2023/11/28 05:52:03;;;;;;;0.30;0.28;;;19.20;33.60;;;;;;5040022;28;20029;-53
2023/11/28 05:54:29;;;;;;;0.20;0.20;;;19.20;33.60;;;;;;5058299;28;20021;-59
2023/11/28 05:56:55;;;;;;;1.00;0.30;;;19.20;33.60;;;;;;5040138;28;20021;-60
2023/11/28 05:59:21;;;;;;;0.10;0.10;;;19.20;33.60;;;;;;5040404;28;20040;-57
2023/11/28 06:02:00;;;;;;;0.13;0.13;;;19.20;33.60;;;;;;5057868;28;20056;-57
2023/11/28 06:04:27;;;;;;;0.30;0.15;;;19.20;33.60;;;;;;5040083;28;20049;-59
2023/11/28 06:06:53;;;;;;;0.15;0.10;;;19.10;33.50;;;;;;5040018;28;20356;-60
2023/11/28 06:09:19;;;;;;;0.20;0.20;;;19.10;33.60;;;;;;5057408;28;20029;-58
2023/11/28 06:11:46;;;;;;;0.30;0.20;;;19.10;33.60;;;;;;5057311;28;20090;-59
2023/11/28 06:14:12;;;;;;;0.52;0.13;;;19.10;33.60;;;;;;5057920;28;20025;-58
2023/11/28 06:16:38;;;;;;;0.40;0.30;;;19.10;33.60;;;;;;5040072;28;20344;-59
2023/11/28 06:19:05;;;;;;;0.22;0.22;;;19.10;34.20;;;;;;5039637;28;20443;-58
2023/11/28 06:21:31;;;;;;;0.47;0.25;;;19.10;33.60;;;;;;5039663;28;20021;-58
2023/11/28 06:23:56;;;;;;;0.30;0.30;;;19.10;33.60;;;;;;5040054;28;20048;-54
2023/11/28 06:26:22;;;;;;;0.20;0.20;;;19.10;33.60;;;;;;5057721;28;20565;-58
2023/11/28 06:28:48;;;;;;;0.70;0.30;;;19.10;33.60;;;;;;5056934;28;20013;-58
2023/11/28 06:31:16;;;;;;;0.30;0.17;;;19.10;33.60;;;;;;5057061;28;20024;-59
2023/11/28 06:33:42;;;;;;;0.30;0.10;;;19.10;33.60;;;;;;5057236;28;20094;-59
2023/11/28 06:36:08;;;;;;;0.30;0.30;;;19.10;33.60;;;;;;5039564;28;20037;-58
2023/11/28 06:38:34;;;;;;;0.30;0.20;;;19.10;33.60;;;;;;5039192;28;20380;-54
2023/11/28 06:41:01;;;;;;;0.17;0.17;;;19.10;33.60;;;;;;5057055;28;20025;-57
2023/11/28 06:43:27;;;;;;;0.60;0.32;;;19.10;33.60;;;;;;5057176;28;20033;-54
2023/11/28 06:45:58;;;;;;;0.35;0.30;;;19.10;33.60;;;;;;5038373;28;20033;-57
2023/11/28 06:48:25;;;;;;;0.30;0.20;;;19.10;33.70;;;;;;5057167;28;20087;-57
2023/11/28 06:50:52;;;;;;;0.30;0.20;;;19.00;33.60;;;;;;5057031;28;20040;-56
2023/11/28 06:53:18;;;;;;;0.32;0.10;;;19.00;33.60;;;;;;5051296;28;20035;-52
2023/11/28 06:55:43;;;;;;;0.30;0.25;;;19.00;33.60;;;;;;5057480;28;20033;-56
2023/11/28 06:58:09;;;;;;;0.28;0.22;;;19.00;33.60;;;;;;5038888;28;20448;-52
2023/11/28 07:00:36;;;;;;;0.98;0.30;;;19.00;33.60;;;;;;5056817;28;20033;-58
2023/11/28 07:03:02;;;;;;;0.40;0.20;;;19.00;33.60;;;;;;5056432;28;20047;-58
2023/11/28 07:05:28;;;;;;;0.25;0.17;;;19.00;33.60;;;;;;5039366;28;20049;-58
2023/11/28 07:07:55;;;;;;;1.17;0.30;;;19.00;33.60;;;;;;5055826;28;20021;-58
2023/11/28 07:10:21;;;;;;;0.30;0.20;;;19.00;33.70;;;;;;5055228;28;20697;-59
2023/11/28 07:12:48;;;;;;;0.38;0.15;;;19.00;33.60;;;;;;5038968;28;20036;-55
2023/11/28 07:15:14;;;;;;;0.25;0.22;;;19.00;33.60;;;;;;5039338;28;20104;-57
2023/11/28 07:17:40;;;;;;;0.50;0.20;;;19.00;33.60;;;;;;5056148;28;20443;-57
2023/11/28 07:20:07;;;;;;;0.47;0.30;;;19.00;33.60;;;;;;5039111;28;20451;-59
2023/11/28 07:22:33;;;;;;;0.63;0.28;;;19.00;33.60;;;;;;5056381;28;20460;-57
2023/11/28 07:24:59;;;;;;;0.75;0.40;;;19.00;33.60;;;;;;5056278;28;20040;-56
2023/11/28 07:27:25;;;;;;;1.10;0.30;;;19.00;33.60;;;;;;5056018;28;20456;-57
2023/11/28 07:29:51;;;;;;;1.65;0.38;;;19.00;33.60;;;;;;5056132;28;20364;-55
2023/11/28 07:32:16;;;;;;;0.43;0.20;;;18.90;33.60;;;;;;5038737;28;20052;-53
2023/11/28 07:34:42;;;;;;;0.43;0.20;;;19.00;33.60;;;;;;5056216;28;20512;-59
2023/11/28 07:37:08;;;;;;;0.40;0.20;;;18.90;33.60;;;;;;5021611;28;20048;-55
2023/11/28 07:39:34;;;;;;;0.70;0.30;;;18.90;33.50;;;;;;5037833;28;20053;-57
2023/11/28 07:42:00;;;;;;;1.75;0.57;;;18.90;33.50;;;;;;5038406;28;20103;-58
2023/11/28 07:44:26;;;;;;;0.35;0.30;;;18.90;33.50;;;;;;5055300;28;20040;-58
2023/11/28 07:46:52;;;;;;;0.63;0.30;;;18.90;33.50;;;;;;5055847;28;20021;-60
2023/11/28 07:49:18;;;;;;;1.17;0.40;;;18.90;33.70;;;;;;5037875;28;20364;-57
2023/11/28 07:51:44;;;;;;;1.25;0.30;;;18.90;33.60;;;;;;5053343;28;20054;-59
2023/11/28 07:54:11;;;;;;;0.85;0.20;;;18.90;33.60;;;;;;5034992;28;20052;-56
2023/11/28 07:56:37;;;;;;;2.47;0.40;;;18.90;33.60;;;;;;5034375;28;20029;-58
2023/11/28 07:59:03;;;;;;;0.63;0.43;;;18.90;33.50;;;;;;5034296;28;20028;-55
2023/11/28 08:01:28;;;;;;;0.93;0.38;;;18.90;33.50;;;;;;5055475;28;20020;-61
2023/11/28 08:03:55;;;;;;;3.22;0.52;;;19.00;33.60;;;;;;5055150;28;20365;-57
2023/11/28 08:06:21;;;;;;;1.17;0.30;;;18.90;33.60;;;;;;5054986;28;20032;-56
2023/11/28 08:08:47;;;;;;;0.85;0.40;;;18.90;33.60;;;;;;5053184;28;20417;-61
2023/11/28 08:11:14;;;;;;;1.45;0.30;;;19.00;33.60;;;;;;5037740;28;20028;-55
2023/11/28 08:13:40;;;;;;;0.50;0.20;;;18.90;33.60;;;;;;5037639;28;20036;-58
2023/11/28 08:16:07;;;;;;;0.73;0.30;;;18.90;33.60;;;;;;5054958;28;20036;-55
2023/11/28 08:18:33;;;;;;;1.00;0.35;;;18.90;33.60;;;;;;5036801;28;20170;-59
2023/11/28 08:21:02;;;;;;;0.93;0.40;;;18.90;33.60;;;;;;5055192;28;20033;-58
2023/11/28 08:23:28;;;;;;;1.52;0.50;;;18.90;33.60;;;;;;5053789;28;20090;-57
2023/11/28 08:25:54;;;;;;;1.13;0.25;;;18.90;33.50;;;;;;5055157;28;20464;-54
2023/11/28 08:28:20;;;;;;;1.60;0.40;;;18.90;33.50;;;;;;5055508;28;20040;-55
2023/11/28 08:30:47;;;;;;;0.47;0.28;;;19.00;33.50;;;;;;5055215;28;20031;-55
2023/11/28 08:33:13;;;;;;;0.70;0.25;;;19.00;33.40;;;;;;5048589;28;20445;-57
2023/11/28 08:35:39;;;;;;;1.33;0.63;;;19.00;33.40;;;;;;5035728;28;20395;-56
2023/11/28 08:38:05;;;;;;;0.32;0.30;;;19.00;33.30;;;;;;5053731;28;20035;-61
2023/11/28 08:40:31;;;;;;;0.20;0.10;;;19.10;33.30;;;;;;5049623;28;20029;-56
2023/11/28 08:42:57;;;;;;;1.08;0.50;;;19.10;33.20;;;;;;5045031;28;20037;-58
2023/11/28 08:45:23;;;;;;;1.55;0.40;;;19.10;33.20;;;;;;5018515;28;20033;-58
2023/11/28 08:47:49;;;;;;;0.57;0.22;;;19.20;33.10;;;;;;5051089;28;20025;-54
2023/11/28 08:50:15;;;;;;;0.30;0.20;;;19.30;33.10;;;;;;5047268;28;20074;-57
2023/11/28 08:52:41;;;;;;;0.77;0.30;;;19.30;33.00;;;;;;5030979;28;20029;-58
2023/11/28 08:55:07;;;;;;;0.73;0.35;;;19.40;33.00;;;;;;5028908;28;20040;-55
2023/11/28 08:57:36;;;;;;;0.98;0.30;;;19.40;32.90;;;;;;5017886;28;20029;-57
2023/11/28 09:00:05;;;;;;;0.52;0.30;;;19.50;32.90;;;;;;5046534;28;20025;-59
2023/11/28 09:02:31;;;;;;;0.60;0.30;;;19.50;32.80;;;;;;5017280;28;20032;-55
2023/11/28 09:04:57;;;;;;;0.68;0.28;;;19.50;32.80;;;;;;5016403;28;20038;-57
2023/11/28 09:07:23;;;;;;;0.20;0.20;;;19.60;32.80;;;;;;5034297;28;20051;-57
2023/11/28 09:09:49;;;;;;;0.30;0.13;;;19.60;32.80;;;;;;5034584;28;20499;-60
2023/11/28 09:12:16;;;;;;;0.55;0.30;;;19.60;32.70;;;;;;5034682;28;20030;-54
2023/11/28 09:14:44;;;;;;;1.33;0.40;;;19.70;32.70;;;;;;5017174;28;20472;-61
2023/11/28 09:17:10;;;;;;;0.63;0.30;;;19.80;32.70;;;;;;5017134;28;20167;-55
2023/11/28 09:19:35;;;;;;;0.40;0.20;;;19.80;32.60;;;;;;5034059;28;20109;-54
2023/11/28 09:22:02;;;;;;;0.77;0.20;;;19.80;32.60;;;;;;5030031;28;20101;-54
2023/11/28 09:24:31;;;;;;;1.17;0.20;;;19.80;32.50;;;;;;4998415;28;20392;-57
2023/11/28 09:26:58;;;;;;;0.40;0.20;;;19.90;32.50;;;;;;5035235;28;20056;-56
2023/11/28 09:29:26;;;;;;;0.82;0.25;;;19.90;32.40;;;;;;5034683;28;20429;-61
2023/11/28 09:31:54;;;;;;;0.22;0.20;;;20.00;32.40;;;;;;5017008;28;20341;-55
2023/11/28 09:34:26;;;;;;;0.77;0.32;;;20.00;32.30;;;;;;5016524;28;20052;-54
2023/11/28 09:36:55;;;;;;;0.40;0.20;;;20.00;32.20;;;;;;5034089;28;20026;-59
2023/11/28 09:39:21;;;;;;;0.32;0.20;;;20.00;32.20;;;;;;5011351;28;20373;-61
2023/11/28 09:41:49;;;;;;;0.80;0.25;;;20.00;32.10;;;;;;5034236;28;20440;-57
2023/11/28 09:44:16;;;;;;;0.40;0.22;;;20.10;32.10;;;;;;5017216;28;20029;-58
2023/11/28 09:46:48;;;;;;;0.85;0.30;;;20.00;32.00;;;;;;5034308;28;20017;-58
2023/11/28 09:49:17;;;;;;;0.30;0.20;;;20.10;32.00;;;;;;5033947;28;20037;-53
2023/11/28 09:51:46;;;;;;;0.20;0.20;;;20.10;32.00;;;;;;5033592;28;20415;-60
2023/11/28 09:54:17;;;;;;;0.28;0.13;;;20.10;31.90;;;;;;5033538;28;20033;-56
2023/11/28 09:56:46;;;;;;;0.60;0.30;;;20.10;31.90;;;;;;5034441;28;20476;-61
2023/11/28 09:59:13;;;;;;;0.60;0.40;;;20.10;31.90;;;;;;5017272;28;20536;-60
2023/11/28 10:01:43;;;;;;;0.25;0.20;;;20.10;32.00;;;;;;5034513;28;20112;-56
2023/11/28 10:04:09;;;;;;;0.55;0.20;;;20.10;31.90;;;;;;5033550;28;20025;-58
2023/11/28 10:06:38;;;;;;;0.40;0.25;;;20.10;31.90;;;;;;5033548;28;20043;-59
2023/11/28 10:09:08;;;;;;;0.22;0.20;;;20.10;31.90;;;;;;5016704;28;20037;-58
2023/11/28 10:11:36;;;;;;;0.30;0.20;;;20.20;32.50;;;;;;5034177;28;20056;-60
2023/11/28 10:14:02;;;;;;;0.40;0.25;;;20.20;31.80;;;;;;5034522;28;20037;-57
2023/11/28 10:16:46;;;;;;;0.50;0.25;;;20.20;31.80;;;;;;5033461;28;20511;-58
2023/11/28 10:19:12;;;;;;;0.43;0.22;;;20.20;31.70;;;;;;5035402;28;20030;-56
2023/11/28 10:21:42;;;;;;;0.30;0.28;;;20.20;31.80;;;;;;5037810;28;20041;-61
2023/11/28 10:24:10;;;;;;;0.20;0.20;;;20.20;31.80;;;;;;5037834;28;20124;-57
2023/11/28 10:26:37;;;;;;;0.93;0.28;;;20.20;31.70;;;;;;5037849;28;20084;-57
2023/11/28 10:29:06;;;;;;;0.47;0.40;;;20.20;31.70;;;;;;5020190;28;20108;-58
2023/11/28 10:31:39;;;;;;;0.30;0.30;;;20.10;31.70;;;;;;5037613;28;20433;-56
2023/11/28 10:34:08;;;;;;;0.40;0.20;;;20.20;31.70;;;;;;5036574;28;20029;-57
2023/11/28 10:36:44;;;;;;;0.47;0.20;;;20.10;31.70;;;;;;5038057;28;20033;-55
2023/11/28 10:39:12;;;;;;;0.90;0.30;;;20.20;31.80;;;;;;5039285;28;20123;-57
2023/11/28 10:41:40;;;;;;;0.45;0.20;;;20.10;31.70;;;;;;5032952;28;20033;-57
2023/11/28 10:44:06;;;;;;;0.50;0.22;;;20.10;31.70;;;;;;5037539;28;20025;-58
2023/11/28 10:46:36;;;;;;;0.55;0.30;;;20.10;31.70;;;;;;5037101;28;20469;-56
2023/11/28 10:49:03;;;;;;;1.50;0.40;;;20.10;31.70;;;;;;5037154;28;20037;-62
2023/11/28 10:51:30;;;;;;;0.47;0.30;;;20.10;31.70;;;;;;5036949;28;20029;-58
2023/11/28 10:54:05;;;;;;;0.65;0.30;;;20.10;31.70;;;;;;5019738;28;20432;-59
2023/11/28 10:57:01;;;;;;;0.40;0.17;;;20.10;31.60;;;;;;5037045;28;20037;-57
2023/11/28 10:59:34;;;;;;;0.47;0.30;;;20.10;31.50;;;;;;5037472;28;20164;-55
2023/11/28 11:02:01;;;;;;;0.75;0.40;;;20.10;31.60;;;;;;5036677;28;20321;-57
2023/11/28 11:04:30;;;;;;;1.13;0.43;;;20.10;31.50;;;;;;5036583;28;20052;-57
2023/11/28 11:06:57;;;;;;;1.27;0.40;;;20.10;31.50;;;;;;5036772;28;20025;-58
2023/11/28 11:09:24;;;;;;;0.77;0.30;;;20.10;31.50;;;;;;5036180;28;20026;-55
2023/11/28 11:11:51;;;;;;;1.75;0.25;;;20.10;31.50;;;;;;5036017;28;20056;-54
2023/11/28 11:14:50;;;;;;;0.22;0.20;;;20.10;31.50;;;;;;5003003;28;20037;-52
2023/11/28 11:17:22;;;;;;;0.57;0.20;;;20.10;31.60;;;;;;5036136;28;20060;-59
2023/11/28 11:19:53;;;;;;;0.73;0.28;;;20.10;31.60;;;;;;5036715;28;20452;-57
2023/11/28 11:22:21;;;;;;;0.20;0.20;;;20.10;31.60;;;;;;5036558;28;20033;-59
2023/11/28 11:24:47;;;;;;;0.65;0.40;;;20.10;31.60;;;;;;5019205;28;20041;-55
2023/11/28 11:27:16;;;;;;;0.65;0.30;;;20.10;31.60;;;;;;5035807;28;20400;-59
2023/11/28 11:29:42;;;;;;;1.27;0.73;;;20.10;31.60;;;;;;5019151;28;20021;-55
2023/11/28 11:32:12;;;;;;;0.70;0.30;;;20.10;31.80;;;;;;5016153;28;20033;-57
2023/11/28 11:34:47;;;;;;;0.73;0.38;;;20.10;32.50;;;;;;5024175;28;20022;-56
2023/11/28 11:37:21;;;;;;;2.85;0.43;;;20.10;32.90;;;;;;5037650;28;20345;-53
2023/11/28 11:39:51;;;;;;;1.63;0.55;;;20.10;33.30;;;;;;5033576;28;20061;-58
2023/11/28 11:42:22;;;;;;;1.70;0.40;;;20.20;33.60;;;;;;5019333;28;20095;-58
2023/11/28 11:45:04;;;;;;;0.35;0.30;;;20.30;33.90;;;;;;5021642;28;20038;-58
2023/11/28 11:47:32;;;;;;;1.73;0.30;;;20.30;34.10;;;;;;5017968;28;20441;-59
2023/11/28 11:50:03;;;;;;;0.57;0.30;;;20.40;34.30;;;;;;5006727;28;20137;-60
2023/11/28 11:52:29;;;;;;;1.58;0.30;;;20.40;34.40;;;;;;5017862;28;20033;-59
2023/11/28 11:55:12;;;;;;;0.70;0.28;;;20.50;34.50;;;;;;5023952;28;20043;-58
2023/11/28 11:57:38;;;;;;;0.30;0.20;;;20.60;34.60;;;;;;5015955;28;20044;-60
2023/11/28 12:00:10;;;;;;;1.30;0.30;;;20.60;34.60;;;;;;4998662;28;20412;-56
2023/11/28 12:02:41;;;;;;;1.38;0.30;;;20.70;34.70;;;;;;4993575;28;20437;-59
2023/11/28 12:05:11;;;;;;;2.22;0.50;;;20.70;34.70;;;;;;5015931;28;20127;-61
2023/11/28 12:07:41;;;;;;;2.10;0.43;;;20.80;34.70;;;;;;5018245;28;20520;-57
2023/11/28 12:10:09;;;;;;;2.08;0.32;;;20.80;34.60;;;;;;5012459;28;20053;-57
2023/11/28 12:12:39;;;;;;;0.63;0.20;;;20.80;34.50;;;;;;5033290;28;20087;-55
2023/11/28 12:15:06;;;;;;;0.88;0.30;;;20.90;34.40;;;;;;5021212;28;20040;-60
2023/11/28 12:17:34;;;;;;;0.60;0.40;;;20.90;34.30;;;;;;5020671;28;20347;-59
2023/11/28 12:20:01;;;;;;;0.22;0.15;;;20.90;34.20;;;;;;5018676;28;20021;-62
2023/11/28 12:22:29;;;;;;;0.20;0.20;;;20.90;34.20;;;;;;5003554;28;20021;-58
2023/11/28 12:24:55;;;;;;;0.82;0.30;;;21.00;34.10;;;;;;5032462;28;20044;-60
2023/11/28 12:27:21;;;;;;;0.75;0.35;;;21.00;34.20;;;;;;5031312;28;20396;-58
2023/11/28 12:29:49;;;;;;;2.05;0.30;;;21.00;34.20;;;;;;5029467;28;20036;-56
2023/11/28 12:32:15;;;;;;;1.58;0.50;;;21.00;34.40;;;;;;5028799;28;20038;-60
2023/11/28 12:34:42;;;;;;;0.73;0.35;;;21.10;34.60;;;;;;5020496;28;20140;-57
2023/11/28 12:37:08;;;;;;;0.60;0.30;;;21.10;34.70;;;;;;5013205;28;20044;-58
2023/11/28 12:39:34;;;;;;;0.70;0.30;;;21.10;34.80;;;;;;5027889;28;20099;-60
2023/11/28 12:42:00;;;;;;;1.00;0.43;;;21.10;34.90;;;;;;5041182;28;20039;-58
2023/11/28 12:44:32;;;;;;;0.30;0.30;;;21.10;35.00;;;;;;5034034;28;20388;-55
2023/11/28 12:46:59;;;;;;;0.35;0.25;;;21.10;35.00;;;;;;5017034;28;20072;-53